Terminal Aerodrome Forecast
Issued by NWS

Home | Current Version | Previous Version | Text Only | Print | Product List | Glossary On
Versions: 1 2 3 4 5 6 7 8 9 10 11 12 13
000
FTUS46 KEKA 281131
TAFUKI
TAF
KUKI 281131Z 2812/2912 00000KT P6SM BKN200
     FM281600 15003KT P6SM OVC070
     FM282100 16005KT 4SM -RA BR OVC030
     FM290400 15003KT 4SM -RA BR OVC020
     FM290600 15005KT 3SM -RA BR OVC015=

USA.gov is the U.S. government's official web portal to all federal, state and local government web resources and services.